sensor_id;sensor_type;location;lat;lon;timestamp;P1;durP1;ratioP1;P2;durP2;ratioP2
62554;SDS011;48610;52.144;8.624;2024-02-14T00:01:21;5.70;;;3.20;;
62554;SDS011;48610;52.144;8.624;2024-02-14T00:04:22;6.22;;;3.00;;
62554;SDS011;48610;52.144;8.624;2024-02-14T00:07:22;4.85;;;3.60;;
62554;SDS011;48610;52.144;8.624;2024-02-14T00:10:23;6.32;;;3.25;;
62554;SDS011;48610;52.144;8.624;2024-02-14T00:13:24;6.80;;;3.42;;
62554;SDS011;48610;52.144;8.624;2024-02-14T00:16:24;8.10;;;3.63;;
62554;SDS011;48610;52.144;8.624;2024-02-14T00:19:25;8.80;;;3.30;;
62554;SDS011;48610;52.144;8.624;2024-02-14T00:22:26;6.53;;;3.10;;
62554;SDS011;48610;52.144;8.624;2024-02-14T00:25:26;7.25;;;3.75;;
62554;SDS011;48610;52.144;8.624;2024-02-14T00:28:27;5.55;;;3.35;;
62554;SDS011;48610;52.144;8.624;2024-02-14T00:31:28;6.43;;;3.25;;
62554;SDS011;48610;52.144;8.624;2024-02-14T00:34:28;7.70;;;3.65;;
62554;SDS011;48610;52.144;8.624;2024-02-14T00:37:29;5.93;;;2.92;;
62554;SDS011;48610;52.144;8.624;2024-02-14T00:40:29;8.15;;;3.50;;
62554;SDS011;48610;52.144;8.624;2024-02-14T00:43:30;5.88;;;3.35;;
62554;SDS011;48610;52.144;8.624;2024-02-14T00:46:30;3.75;;;3.15;;
62554;SDS011;48610;52.144;8.624;2024-02-14T00:49:34;7.53;;;3.30;;
62554;SDS011;48610;52.144;8.624;2024-02-14T00:52:35;7.50;;;3.65;;
62554;SDS011;48610;52.144;8.624;2024-02-14T00:55:35;3.72;;;3.10;;
62554;SDS011;48610;52.144;8.624;2024-02-14T00:58:36;7.15;;;3.28;;
62554;SDS011;48610;52.144;8.624;2024-02-14T01:01:36;6.78;;;3.42;;
62554;SDS011;48610;52.144;8.624;2024-02-14T01:04:38;2.58;;;1.98;;
62554;SDS011;48610;52.144;8.624;2024-02-14T01:07:38;8.93;;;3.72;;
62554;SDS011;48610;52.144;8.624;2024-02-14T01:10:39;5.43;;;3.20;;
62554;SDS011;48610;52.144;8.624;2024-02-14T01:13:39;4.53;;;2.85;;
62554;SDS011;48610;52.144;8.624;2024-02-14T01:16:44;6.22;;;3.25;;
62554;SDS011;48610;52.144;8.624;2024-02-14T01:19:45;5.38;;;3.05;;
62554;SDS011;48610;52.144;8.624;2024-02-14T01:22:46;4.03;;;2.50;;
62554;SDS011;48610;52.144;8.624;2024-02-14T01:25:46;4.72;;;3.20;;
62554;SDS011;48610;52.144;8.624;2024-02-14T01:28:47;5.55;;;3.00;;
62554;SDS011;48610;52.144;8.624;2024-02-14T01:31:48;3.75;;;2.83;;
62554;SDS011;48610;52.144;8.624;2024-02-14T01:34:50;4.35;;;2.67;;
62554;SDS011;48610;52.144;8.624;2024-02-14T01:37:50;5.38;;;3.10;;
62554;SDS011;48610;52.144;8.624;2024-02-14T01:40:52;3.53;;;2.45;;
62554;SDS011;48610;52.144;8.624;2024-02-14T01:43:53;5.55;;;3.28;;
62554;SDS011;48610;52.144;8.624;2024-02-14T01:46:53;5.72;;;2.70;;
62554;SDS011;48610;52.144;8.624;2024-02-14T01:49:54;6.97;;;3.78;;
62554;SDS011;48610;52.144;8.624;2024-02-14T01:52:56;9.32;;;3.20;;
62554;SDS011;48610;52.144;8.624;2024-02-14T01:55:59;5.80;;;3.00;;
62554;SDS011;48610;52.144;8.624;2024-02-14T01:59:00;5.82;;;2.95;;
62554;SDS011;48610;52.144;8.624;2024-02-14T02:02:01;5.78;;;2.80;;
62554;SDS011;48610;52.144;8.624;2024-02-14T02:05:02;2.80;;;2.50;;
62554;SDS011;48610;52.144;8.624;2024-02-14T02:08:03;5.05;;;2.95;;
62554;SDS011;48610;52.144;8.624;2024-02-14T02:11:03;4.70;;;3.17;;
62554;SDS011;48610;52.144;8.624;2024-02-14T02:14:05;3.75;;;2.55;;
62554;SDS011;48610;52.144;8.624;2024-02-14T02:17:06;3.80;;;2.35;;
62554;SDS011;48610;52.144;8.624;2024-02-14T02:20:08;8.90;;;3.10;;
62554;SDS011;48610;52.144;8.624;2024-02-14T02:23:10;8.75;;;3.75;;
62554;SDS011;48610;52.144;8.624;2024-02-14T02:26:14;7.15;;;3.30;;
62554;SDS011;48610;52.144;8.624;2024-02-14T02:29:15;4.82;;;3.50;;
62554;SDS011;48610;52.144;8.624;2024-02-14T02:32:16;5.15;;;2.80;;
62554;SDS011;48610;52.144;8.624;2024-02-14T02:35:18;7.10;;;3.50;;
62554;SDS011;48610;52.144;8.624;2024-02-14T02:38:21;4.15;;;2.90;;
62554;SDS011;48610;52.144;8.624;2024-02-14T02:41:22;6.75;;;3.50;;
62554;SDS011;48610;52.144;8.624;2024-02-14T02:44:24;5.90;;;3.17;;
62554;SDS011;48610;52.144;8.624;2024-02-14T02:47:25;4.90;;;3.47;;
62554;SDS011;48610;52.144;8.624;2024-02-14T02:50:25;5.50;;;2.78;;
62554;SDS011;48610;52.144;8.624;2024-02-14T02:53:26;7.82;;;3.38;;
62554;SDS011;48610;52.144;8.624;2024-02-14T02:56:26;4.25;;;2.72;;
62554;SDS011;48610;52.144;8.624;2024-02-14T02:59:27;6.38;;;3.30;;
62554;SDS011;48610;52.144;8.624;2024-02-14T03:02:30;6.00;;;2.90;;
62554;SDS011;48610;52.144;8.624;2024-02-14T03:05:30;4.38;;;3.08;;
62554;SDS011;48610;52.144;8.624;2024-02-14T03:08:33;5.80;;;3.30;;
62554;SDS011;48610;52.144;8.624;2024-02-14T03:11:34;7.75;;;2.95;;
62554;SDS011;48610;52.144;8.624;2024-02-14T03:14:37;5.90;;;3.03;;
62554;SDS011;48610;52.144;8.624;2024-02-14T03:17:39;5.07;;;2.95;;
62554;SDS011;48610;52.144;8.624;2024-02-14T03:20:39;4.03;;;2.45;;
62554;SDS011;48610;52.144;8.624;2024-02-14T03:23:40;4.80;;;3.00;;
62554;SDS011;48610;52.144;8.624;2024-02-14T03:26:41;3.38;;;2.80;;
62554;SDS011;48610;52.144;8.624;2024-02-14T03:29:42;1.60;;;1.50;;
62554;SDS011;48610;52.144;8.624;2024-02-14T03:32:44;10.70;;;3.25;;
62554;SDS011;48610;52.144;8.624;2024-02-14T03:35:44;4.47;;;2.97;;
62554;SDS011;48610;52.144;8.624;2024-02-14T03:38:46;7.40;;;2.80;;
62554;SDS011;48610;52.144;8.624;2024-02-14T03:41:47;4.07;;;3.00;;
62554;SDS011;48610;52.144;8.624;2024-02-14T03:44:48;5.00;;;3.55;;
62554;SDS011;48610;52.144;8.624;2024-02-14T03:47:48;5.47;;;3.13;;
62554;SDS011;48610;52.144;8.624;2024-02-14T03:50:49;4.20;;;2.83;;
62554;SDS011;48610;52.144;8.624;2024-02-14T03:53:49;7.63;;;3.28;;
62554;SDS011;48610;52.144;8.624;2024-02-14T03:56:50;8.20;;;3.25;;
62554;SDS011;48610;52.144;8.624;2024-02-14T03:59:52;6.05;;;3.20;;
62554;SDS011;48610;52.144;8.624;2024-02-14T04:02:52;3.80;;;2.80;;
62554;SDS011;48610;52.144;8.624;2024-02-14T04:05:53;4.88;;;2.70;;
62554;SDS011;48610;52.144;8.624;2024-02-14T04:08:54;6.18;;;2.97;;
62554;SDS011;48610;52.144;8.624;2024-02-14T04:11:55;3.53;;;2.55;;
62554;SDS011;48610;52.144;8.624;2024-02-14T04:14:55;7.72;;;3.40;;
62554;SDS011;48610;52.144;8.624;2024-02-14T04:17:56;5.15;;;3.20;;
62554;SDS011;48610;52.144;8.624;2024-02-14T04:20:56;5.60;;;3.30;;
62554;SDS011;48610;52.144;8.624;2024-02-14T04:23:57;5.32;;;3.38;;
62554;SDS011;48610;52.144;8.624;2024-02-14T04:26:57;3.28;;;2.63;;
62554;SDS011;48610;52.144;8.624;2024-02-14T04:30:00;7.20;;;3.00;;
62554;SDS011;48610;52.144;8.624;2024-02-14T04:33:01;6.00;;;3.50;;
62554;SDS011;48610;52.144;8.624;2024-02-14T04:36:02;4.13;;;2.55;;
62554;SDS011;48610;52.144;8.624;2024-02-14T04:39:05;3.80;;;2.97;;
62554;SDS011;48610;52.144;8.624;2024-02-14T04:42:06;3.10;;;2.45;;
62554;SDS011;48610;52.144;8.624;2024-02-14T04:45:06;4.38;;;3.20;;
62554;SDS011;48610;52.144;8.624;2024-02-14T04:48:08;4.90;;;3.40;;
62554;SDS011;48610;52.144;8.624;2024-02-14T04:51:08;6.25;;;3.00;;
62554;SDS011;48610;52.144;8.624;2024-02-14T04:54:09;5.20;;;3.70;;
62554;SDS011;48610;52.144;8.624;2024-02-14T04:57:10;5.32;;;3.38;;
62554;SDS011;48610;52.144;8.624;2024-02-14T05:00:10;6.47;;;3.40;;
62554;SDS011;48610;52.144;8.624;2024-02-14T05:03:11;6.55;;;3.28;;
62554;SDS011;48610;52.144;8.624;2024-02-14T05:06:12;3.53;;;2.20;;
62554;SDS011;48610;52.144;8.624;2024-02-14T05:09:13;4.43;;;3.72;;
62554;SDS011;48610;52.144;8.624;2024-02-14T05:12:14;6.30;;;4.18;;
62554;SDS011;48610;52.144;8.624;2024-02-14T05:15:15;5.85;;;3.92;;
62554;SDS011;48610;52.144;8.624;2024-02-14T05:18:16;9.48;;;3.67;;
62554;SDS011;48610;52.144;8.624;2024-02-14T05:21:19;6.20;;;3.60;;
62554;SDS011;48610;52.144;8.624;2024-02-14T05:24:20;3.75;;;3.20;;
62554;SDS011;48610;52.144;8.624;2024-02-14T05:27:20;7.95;;;3.33;;
62554;SDS011;48610;52.144;8.624;2024-02-14T05:30:21;6.90;;;3.95;;
62554;SDS011;48610;52.144;8.624;2024-02-14T05:33:21;5.10;;;3.85;;
62554;SDS011;48610;52.144;8.624;2024-02-14T05:36:22;6.70;;;4.05;;
62554;SDS011;48610;52.144;8.624;2024-02-14T05:39:25;8.60;;;4.03;;
62554;SDS011;48610;52.144;8.624;2024-02-14T05:42:25;5.53;;;3.47;;
62554;SDS011;48610;52.144;8.624;2024-02-14T05:45:26;10.35;;;3.83;;
62554;SDS011;48610;52.144;8.624;2024-02-14T05:48:27;6.70;;;4.45;;
62554;SDS011;48610;52.144;8.624;2024-02-14T05:51:28;5.82;;;4.15;;
62554;SDS011;48610;52.144;8.624;2024-02-14T05:54:29;6.65;;;4.03;;
62554;SDS011;48610;52.144;8.624;2024-02-14T05:57:29;5.55;;;3.75;;
62554;SDS011;48610;52.144;8.624;2024-02-14T06:00:30;5.63;;;3.58;;
62554;SDS011;48610;52.144;8.624;2024-02-14T06:03:30;3.97;;;3.47;;
62554;SDS011;48610;52.144;8.624;2024-02-14T06:06:31;7.57;;;3.30;;
62554;SDS011;48610;52.144;8.624;2024-02-14T06:09:31;5.32;;;3.85;;
62554;SDS011;48610;52.144;8.624;2024-02-14T06:12:32;3.47;;;3.15;;
62554;SDS011;48610;52.144;8.624;2024-02-14T06:15:33;5.80;;;3.47;;
62554;SDS011;48610;52.144;8.624;2024-02-14T06:18:34;2.22;;;2.03;;
62554;SDS011;48610;52.144;8.624;2024-02-14T06:21:35;3.45;;;3.03;;
62554;SDS011;48610;52.144;8.624;2024-02-14T06:24:36;4.10;;;3.25;;
62554;SDS011;48610;52.144;8.624;2024-02-14T06:27:36;3.03;;;2.78;;
62554;SDS011;48610;52.144;8.624;2024-02-14T06:30:37;3.33;;;2.70;;
62554;SDS011;48610;52.144;8.624;2024-02-14T06:33:37;6.53;;;3.45;;
62554;SDS011;48610;52.144;8.624;2024-02-14T06:36:38;4.28;;;3.22;;
62554;SDS011;48610;52.144;8.624;2024-02-14T06:39:38;5.05;;;3.85;;
62554;SDS011;48610;52.144;8.624;2024-02-14T06:42:39;4.65;;;3.70;;
62554;SDS011;48610;52.144;8.624;2024-02-14T06:45:39;2.53;;;2.22;;
62554;SDS011;48610;52.144;8.624;2024-02-14T06:48:40;5.20;;;3.95;;
62554;SDS011;48610;52.144;8.624;2024-02-14T06:51:40;4.45;;;3.35;;
62554;SDS011;48610;52.144;8.624;2024-02-14T06:54:41;4.88;;;3.58;;
62554;SDS011;48610;52.144;8.624;2024-02-14T06:57:42;3.92;;;3.40;;
62554;SDS011;48610;52.144;8.624;2024-02-14T07:00:42;4.40;;;3.63;;
62554;SDS011;48610;52.144;8.624;2024-02-14T07:03:44;4.30;;;3.63;;
62554;SDS011;48610;52.144;8.624;2024-02-14T07:06:46;4.93;;;4.32;;
62554;SDS011;48610;52.144;8.624;2024-02-14T07:09:47;5.47;;;4.30;;
62554;SDS011;48610;52.144;8.624;2024-02-14T07:12:47;3.55;;;3.25;;
62554;SDS011;48610;52.144;8.624;2024-02-14T07:15:48;3.92;;;3.08;;
62554;SDS011;48610;52.144;8.624;2024-02-14T07:18:49;4.93;;;4.10;;
62554;SDS011;48610;52.144;8.624;2024-02-14T07:21:50;8.38;;;5.18;;
62554;SDS011;48610;52.144;8.624;2024-02-14T07:24:50;6.32;;;4.90;;
62554;SDS011;48610;52.144;8.624;2024-02-14T07:27:51;8.00;;;4.78;;
62554;SDS011;48610;52.144;8.624;2024-02-14T07:30:51;9.18;;;6.20;;
62554;SDS011;48610;52.144;8.624;2024-02-14T07:33:52;12.05;;;5.93;;
62554;SDS011;48610;52.144;8.624;2024-02-14T07:36:54;9.15;;;6.00;;
62554;SDS011;48610;52.144;8.624;2024-02-14T07:39:54;8.15;;;6.28;;
62554;SDS011;48610;52.144;8.624;2024-02-14T07:42:55;12.60;;;8.00;;
62554;SDS011;48610;52.144;8.624;2024-02-14T07:45:55;7.05;;;5.15;;
62554;SDS011;48610;52.144;8.624;2024-02-14T07:48:56;7.18;;;5.20;;
62554;SDS011;48610;52.144;8.624;2024-02-14T07:51:57;9.88;;;6.20;;
62554;SDS011;48610;52.144;8.624;2024-02-14T07:54:58;10.57;;;7.18;;
62554;SDS011;48610;52.144;8.624;2024-02-14T07:57:58;9.30;;;7.43;;
62554;SDS011;48610;52.144;8.624;2024-02-14T08:01:00;7.97;;;6.55;;
62554;SDS011;48610;52.144;8.624;2024-02-14T08:04:00;6.82;;;4.95;;
62554;SDS011;48610;52.144;8.624;2024-02-14T08:07:01;12.25;;;7.95;;
62554;SDS011;48610;52.144;8.624;2024-02-14T08:10:02;8.52;;;7.28;;
62554;SDS011;48610;52.144;8.624;2024-02-14T08:13:05;9.38;;;7.03;;
62554;SDS011;48610;52.144;8.624;2024-02-14T08:16:05;8.82;;;7.43;;
62554;SDS011;48610;52.144;8.624;2024-02-14T08:19:07;9.00;;;6.75;;
62554;SDS011;48610;52.144;8.624;2024-02-14T08:22:07;9.15;;;6.20;;
62554;SDS011;48610;52.144;8.624;2024-02-14T08:25:08;4.22;;;3.38;;
62554;SDS011;48610;52.144;8.624;2024-02-14T08:28:09;9.25;;;6.47;;
62554;SDS011;48610;52.144;8.624;2024-02-14T08:31:10;10.55;;;7.63;;
62554;SDS011;48610;52.144;8.624;2024-02-14T08:34:11;9.85;;;7.03;;
62554;SDS011;48610;52.144;8.624;2024-02-14T08:37:12;10.35;;;7.53;;
62554;SDS011;48610;52.144;8.624;2024-02-14T08:40:13;11.23;;;6.55;;
62554;SDS011;48610;52.144;8.624;2024-02-14T08:43:14;10.82;;;7.80;;
62554;SDS011;48610;52.144;8.624;2024-02-14T08:46:16;11.32;;;7.47;;
62554;SDS011;48610;52.144;8.624;2024-02-14T08:49:17;6.95;;;4.68;;
62554;SDS011;48610;52.144;8.624;2024-02-14T08:52:18;14.35;;;7.80;;
62554;SDS011;48610;52.144;8.624;2024-02-14T08:55:18;11.80;;;8.45;;
62554;SDS011;48610;52.144;8.624;2024-02-14T08:58:19;8.63;;;6.55;;
62554;SDS011;48610;52.144;8.624;2024-02-14T09:01:20;16.20;;;7.05;;
62554;SDS011;48610;52.144;8.624;2024-02-14T09:04:21;7.57;;;6.32;;
62554;SDS011;48610;52.144;8.624;2024-02-14T09:07:22;9.52;;;7.78;;
62554;SDS011;48610;52.144;8.624;2024-02-14T09:10:22;12.38;;;7.47;;
62554;SDS011;48610;52.144;8.624;2024-02-14T09:13:23;10.27;;;6.65;;
62554;SDS011;48610;52.144;8.624;2024-02-14T09:16:24;8.35;;;6.10;;
62554;SDS011;48610;52.144;8.624;2024-02-14T09:19:25;5.38;;;3.38;;
62554;SDS011;48610;52.144;8.624;2024-02-14T09:22:27;4.97;;;4.03;;
62554;SDS011;48610;52.144;8.624;2024-02-14T09:25:28;6.15;;;4.85;;
62554;SDS011;48610;52.144;8.624;2024-02-14T09:28:29;12.05;;;6.65;;
62554;SDS011;48610;52.144;8.624;2024-02-14T09:31:30;7.65;;;5.88;;
62554;SDS011;48610;52.144;8.624;2024-02-14T09:34:30;4.07;;;3.15;;
62554;SDS011;48610;52.144;8.624;2024-02-14T09:37:31;5.75;;;4.53;;
62554;SDS011;48610;52.144;8.624;2024-02-14T09:40:32;5.75;;;4.55;;
62554;SDS011;48610;52.144;8.624;2024-02-14T09:43:37;7.43;;;5.57;;
62554;SDS011;48610;52.144;8.624;2024-02-14T09:46:41;7.57;;;5.65;;
62554;SDS011;48610;52.144;8.624;2024-02-14T09:49:42;7.63;;;5.25;;
62554;SDS011;48610;52.144;8.624;2024-02-14T09:52:43;7.53;;;4.90;;
62554;SDS011;48610;52.144;8.624;2024-02-14T09:55:47;6.60;;;5.32;;
62554;SDS011;48610;52.144;8.624;2024-02-14T09:58:50;8.45;;;5.45;;
62554;SDS011;48610;52.144;8.624;2024-02-14T10:01:56;11.40;;;6.82;;
62554;SDS011;48610;52.144;8.624;2024-02-14T10:04:57;8.55;;;4.97;;
62554;SDS011;48610;52.144;8.624;2024-02-14T10:07:57;6.97;;;5.72;;
62554;SDS011;48610;52.144;8.624;2024-02-14T10:10:58;8.27;;;5.63;;
62554;SDS011;48610;52.144;8.624;2024-02-14T10:13:59;5.53;;;3.83;;
62554;SDS011;48610;52.144;8.624;2024-02-14T10:17:03;6.50;;;5.20;;
62554;SDS011;48610;52.144;8.624;2024-02-14T10:20:04;10.95;;;5.82;;
62554;SDS011;48610;52.144;8.624;2024-02-14T10:23:07;10.45;;;5.95;;
62554;SDS011;48610;52.144;8.624;2024-02-14T10:26:08;8.88;;;6.43;;
62554;SDS011;48610;52.144;8.624;2024-02-14T10:29:09;8.95;;;6.75;;
62554;SDS011;48610;52.144;8.624;2024-02-14T10:32:14;6.00;;;4.63;;
62554;SDS011;48610;52.144;8.624;2024-02-14T10:35:16;9.55;;;7.25;;
62554;SDS011;48610;52.144;8.624;2024-02-14T10:38:16;10.45;;;7.70;;
62554;SDS011;48610;52.144;8.624;2024-02-14T10:41:19;10.27;;;6.68;;
62554;SDS011;48610;52.144;8.624;2024-02-14T10:44:20;12.02;;;5.15;;
62554;SDS011;48610;52.144;8.624;2024-02-14T10:47:20;13.13;;;8.70;;
62554;SDS011;48610;52.144;8.624;2024-02-14T10:50:28;12.88;;;8.38;;
62554;SDS011;48610;52.144;8.624;2024-02-14T10:53:34;13.65;;;7.80;;
62554;SDS011;48610;52.144;8.624;2024-02-14T10:56:40;10.85;;;8.13;;
62554;SDS011;48610;52.144;8.624;2024-02-14T10:59:45;10.70;;;7.43;;
62554;SDS011;48610;52.144;8.624;2024-02-14T11:02:48;10.75;;;8.07;;
62554;SDS011;48610;52.144;8.624;2024-02-14T11:05:53;13.52;;;8.32;;
62554;SDS011;48610;52.144;8.624;2024-02-14T11:09:03;9.75;;;7.75;;
62554;SDS011;48610;52.144;8.624;2024-02-14T11:12:10;8.57;;;6.50;;
62554;SDS011;48610;52.144;8.624;2024-02-14T11:15:12;15.05;;;8.50;;
62554;SDS011;48610;52.144;8.624;2024-02-14T11:18:26;7.78;;;5.65;;
62554;SDS011;48610;52.144;8.624;2024-02-14T11:21:30;12.90;;;7.80;;
62554;SDS011;48610;52.144;8.624;2024-02-14T11:24:30;11.00;;;7.72;;
62554;SDS011;48610;52.144;8.624;2024-02-14T11:27:34;11.73;;;8.07;;
62554;SDS011;48610;52.144;8.624;2024-02-14T11:30:35;6.53;;;5.35;;
62554;SDS011;48610;52.144;8.624;2024-02-14T11:33:36;9.07;;;6.70;;
62554;SDS011;48610;52.144;8.624;2024-02-14T11:36:37;12.57;;;7.50;;
62554;SDS011;48610;52.144;8.624;2024-02-14T11:39:38;10.73;;;7.40;;
62554;SDS011;48610;52.144;8.624;2024-02-14T11:42:39;9.60;;;7.07;;
62554;SDS011;48610;52.144;8.624;2024-02-14T11:45:41;11.13;;;7.38;;
62554;SDS011;48610;52.144;8.624;2024-02-14T11:48:42;8.95;;;7.55;;
62554;SDS011;48610;52.144;8.624;2024-02-14T11:51:44;9.23;;;7.28;;
62554;SDS011;48610;52.144;8.624;2024-02-14T11:54:48;12.10;;;7.70;;
62554;SDS011;48610;52.144;8.624;2024-02-14T11:57:51;9.05;;;6.68;;
62554;SDS011;48610;52.144;8.624;2024-02-14T12:00:52;10.32;;;5.07;;
62554;SDS011;48610;52.144;8.624;2024-02-14T12:03:53;6.97;;;5.85;;
62554;SDS011;48610;52.144;8.624;2024-02-14T12:06:54;8.15;;;6.97;;
62554;SDS011;48610;52.144;8.624;2024-02-14T12:09:55;6.82;;;5.88;;
62554;SDS011;48610;52.144;8.624;2024-02-14T12:12:55;7.07;;;4.72;;
62554;SDS011;48610;52.144;8.624;2024-02-14T12:15:56;8.50;;;6.05;;
62554;SDS011;48610;52.144;8.624;2024-02-14T12:19:06;5.93;;;4.90;;
62554;SDS011;48610;52.144;8.624;2024-02-14T12:22:09;9.27;;;6.38;;
62554;SDS011;48610;52.144;8.624;2024-02-14T12:25:17;6.30;;;4.90;;
62554;SDS011;48610;52.144;8.624;2024-02-14T12:28:18;8.77;;;6.00;;
62554;SDS011;48610;52.144;8.624;2024-02-14T12:31:22;9.30;;;5.82;;
62554;SDS011;48610;52.144;8.624;2024-02-14T12:34:24;7.07;;;5.37;;
62554;SDS011;48610;52.144;8.624;2024-02-14T12:37:27;7.00;;;4.47;;
62554;SDS011;48610;52.144;8.624;2024-02-14T12:40:28;6.10;;;5.18;;
62554;SDS011;48610;52.144;8.624;2024-02-14T12:43:29;6.70;;;5.00;;
62554;SDS011;48610;52.144;8.624;2024-02-14T12:46:29;4.40;;;3.63;;
62554;SDS011;48610;52.144;8.624;2024-02-14T12:49:30;5.40;;;4.55;;
62554;SDS011;48610;52.144;8.624;2024-02-14T12:52:32;7.07;;;5.15;;
62554;SDS011;48610;52.144;8.624;2024-02-14T12:55:34;10.02;;;6.45;;
62554;SDS011;48610;52.144;8.624;2024-02-14T12:58:35;7.10;;;5.00;;
62554;SDS011;48610;52.144;8.624;2024-02-14T13:01:36;5.68;;;4.95;;
62554;SDS011;48610;52.144;8.624;2024-02-14T13:04:36;7.07;;;4.57;;
62554;SDS011;48610;52.144;8.624;2024-02-14T13:07:37;7.05;;;4.95;;
62554;SDS011;48610;52.144;8.624;2024-02-14T13:10:38;6.32;;;5.13;;
62554;SDS011;48610;52.144;8.624;2024-02-14T13:13:39;5.68;;;4.53;;
62554;SDS011;48610;52.144;8.624;2024-02-14T13:16:42;3.97;;;3.38;;
62554;SDS011;48610;52.144;8.624;2024-02-14T13:19:43;9.68;;;4.63;;
62554;SDS011;48610;52.144;8.624;2024-02-14T13:22:44;7.38;;;5.05;;
62554;SDS011;48610;52.144;8.624;2024-02-14T13:25:44;3.63;;;2.83;;
62554;SDS011;48610;52.144;8.624;2024-02-14T13:28:45;5.50;;;4.68;;
62554;SDS011;48610;52.144;8.624;2024-02-14T13:31:45;8.68;;;5.53;;
62554;SDS011;48610;52.144;8.624;2024-02-14T13:34:46;10.68;;;4.40;;
62554;SDS011;48610;52.144;8.624;2024-02-14T13:37:48;8.23;;;5.40;;
62554;SDS011;48610;52.144;8.624;2024-02-14T13:40:49;15.02;;;8.48;;
62554;SDS011;48610;52.144;8.624;2024-02-14T13:43:49;14.50;;;8.15;;
62554;SDS011;48610;52.144;8.624;2024-02-14T13:46:50;9.35;;;4.95;;
62554;SDS011;48610;52.144;8.624;2024-02-14T13:49:52;18.05;;;9.35;;
62554;SDS011;48610;52.144;8.624;2024-02-14T13:52:53;10.60;;;6.45;;
62554;SDS011;48610;52.144;8.624;2024-02-14T13:55:54;12.35;;;7.57;;
62554;SDS011;48610;52.144;8.624;2024-02-14T13:58:55;7.50;;;4.75;;
62554;SDS011;48610;52.144;8.624;2024-02-14T14:01:56;21.27;;;10.02;;
62554;SDS011;48610;52.144;8.624;2024-02-14T14:04:56;10.73;;;7.63;;
62554;SDS011;48610;52.144;8.624;2024-02-14T14:07:57;13.73;;;7.80;;
62554;SDS011;48610;52.144;8.624;2024-02-14T14:10:59;13.52;;;7.30;;
62554;SDS011;48610;52.144;8.624;2024-02-14T14:14:00;16.23;;;8.00;;
62554;SDS011;48610;52.144;8.624;2024-02-14T14:17:01;13.20;;;6.68;;
62554;SDS011;48610;52.144;8.624;2024-02-14T14:20:01;13.82;;;5.50;;
62554;SDS011;48610;52.144;8.624;2024-02-14T14:23:03;11.82;;;7.07;;
62554;SDS011;48610;52.144;8.624;2024-02-14T14:26:04;10.75;;;6.55;;
62554;SDS011;48610;52.144;8.624;2024-02-14T14:29:06;14.05;;;7.75;;
62554;SDS011;48610;52.144;8.624;2024-02-14T14:32:11;10.07;;;6.82;;
62554;SDS011;48610;52.144;8.624;2024-02-14T14:35:12;13.07;;;7.10;;
62554;SDS011;48610;52.144;8.624;2024-02-14T14:38:12;11.32;;;6.88;;
62554;SDS011;48610;52.144;8.624;2024-02-14T14:41:13;11.93;;;7.28;;
62554;SDS011;48610;52.144;8.624;2024-02-14T14:44:14;9.48;;;6.82;;
62554;SDS011;48610;52.144;8.624;2024-02-14T14:47:15;8.77;;;6.72;;
62554;SDS011;48610;52.144;8.624;2024-02-14T14:50:16;10.32;;;6.00;;
62554;SDS011;48610;52.144;8.624;2024-02-14T14:53:18;12.43;;;6.20;;
62554;SDS011;48610;52.144;8.624;2024-02-14T14:56:19;9.05;;;6.22;;
62554;SDS011;48610;52.144;8.624;2024-02-14T14:59:19;8.00;;;4.55;;
62554;SDS011;48610;52.144;8.624;2024-02-14T15:02:20;10.48;;;5.80;;
62554;SDS011;48610;52.144;8.624;2024-02-14T15:05:22;9.90;;;5.82;;
62554;SDS011;48610;52.144;8.624;2024-02-14T15:08:22;8.07;;;5.88;;
62554;SDS011;48610;52.144;8.624;2024-02-14T15:11:27;12.25;;;5.63;;
62554;SDS011;48610;52.144;8.624;2024-02-14T15:14:28;7.72;;;4.90;;
62554;SDS011;48610;52.144;8.624;2024-02-14T15:17:29;7.43;;;5.03;;
62554;SDS011;48610;52.144;8.624;2024-02-14T15:20:29;10.65;;;5.72;;
62554;SDS011;48610;52.144;8.624;2024-02-14T15:23:30;8.65;;;5.50;;
62554;SDS011;48610;52.144;8.624;2024-02-14T15:26:30;7.68;;;5.20;;
62554;SDS011;48610;52.144;8.624;2024-02-14T15:29:39;8.57;;;5.28;;
62554;SDS011;48610;52.144;8.624;2024-02-14T15:32:58;8.15;;;5.53;;
62554;SDS011;48610;52.144;8.624;2024-02-14T15:36:17;10.93;;;5.38;;
62554;SDS011;48610;52.144;8.624;2024-02-14T15:39:18;10.38;;;5.78;;
62554;SDS011;48610;52.144;8.624;2024-02-14T15:42:18;6.60;;;4.85;;
62554;SDS011;48610;52.144;8.624;2024-02-14T15:45:19;7.65;;;5.10;;
62554;SDS011;48610;52.144;8.624;2024-02-14T15:48:20;7.07;;;5.20;;
62554;SDS011;48610;52.144;8.624;2024-02-14T15:51:21;6.55;;;5.20;;
62554;SDS011;48610;52.144;8.624;2024-02-14T15:54:23;6.80;;;4.70;;
62554;SDS011;48610;52.144;8.624;2024-02-14T15:57:24;8.20;;;4.68;;
62554;SDS011;48610;52.144;8.624;2024-02-14T16:00:25;7.75;;;3.72;;
62554;SDS011;48610;52.144;8.624;2024-02-14T16:03:26;4.55;;;3.53;;
62554;SDS011;48610;52.144;8.624;2024-02-14T16:06:28;5.00;;;3.75;;
62554;SDS011;48610;52.144;8.624;2024-02-14T16:09:29;7.43;;;3.80;;
62554;SDS011;48610;52.144;8.624;2024-02-14T16:12:30;5.90;;;3.60;;
62554;SDS011;48610;52.144;8.624;2024-02-14T16:15:30;5.82;;;3.85;;
62554;SDS011;48610;52.144;8.624;2024-02-14T16:18:31;5.28;;;3.50;;
62554;SDS011;48610;52.144;8.624;2024-02-14T16:21:31;5.70;;;3.80;;
62554;SDS011;48610;52.144;8.624;2024-02-14T16:24:32;9.02;;;4.00;;
62554;SDS011;48610;52.144;8.624;2024-02-14T16:27:34;6.53;;;3.65;;
62554;SDS011;48610;52.144;8.624;2024-02-14T16:30:36;3.33;;;2.95;;
62554;SDS011;48610;52.144;8.624;2024-02-14T16:33:36;5.18;;;3.97;;
62554;SDS011;48610;52.144;8.624;2024-02-14T16:36:36;7.65;;;3.80;;
62554;SDS011;48610;52.144;8.624;2024-02-14T16:39:37;8.32;;;3.97;;
62554;SDS011;48610;52.144;8.624;2024-02-14T16:42:37;4.72;;;3.67;;
62554;SDS011;48610;52.144;8.624;2024-02-14T16:45:38;5.50;;;3.97;;
62554;SDS011;48610;52.144;8.624;2024-02-14T16:48:39;5.20;;;3.85;;
62554;SDS011;48610;52.144;8.624;2024-02-14T16:51:39;6.43;;;4.00;;
62554;SDS011;48610;52.144;8.624;2024-02-14T16:54:40;5.03;;;3.50;;
62554;SDS011;48610;52.144;8.624;2024-02-14T16:57:40;4.57;;;3.50;;
62554;SDS011;48610;52.144;8.624;2024-02-14T17:00:41;4.97;;;3.80;;
62554;SDS011;48610;52.144;8.624;2024-02-14T17:03:42;5.05;;;3.85;;
62554;SDS011;48610;52.144;8.624;2024-02-14T17:06:43;4.72;;;3.60;;
62554;SDS011;48610;52.144;8.624;2024-02-14T17:09:44;5.25;;;3.58;;
62554;SDS011;48610;52.144;8.624;2024-02-14T17:12:45;5.38;;;3.83;;
62554;SDS011;48610;52.144;8.624;2024-02-14T17:15:45;10.23;;;4.35;;
62554;SDS011;48610;52.144;8.624;2024-02-14T17:18:46;6.43;;;4.10;;
62554;SDS011;48610;52.144;8.624;2024-02-14T17:21:46;5.80;;;3.95;;
62554;SDS011;48610;52.144;8.624;2024-02-14T17:24:47;6.20;;;3.90;;
62554;SDS011;48610;52.144;8.624;2024-02-14T17:27:49;8.55;;;4.85;;
62554;SDS011;48610;52.144;8.624;2024-02-14T17:30:50;8.98;;;4.60;;
62554;SDS011;48610;52.144;8.624;2024-02-14T17:33:52;9.02;;;5.03;;
62554;SDS011;48610;52.144;8.624;2024-02-14T17:36:55;8.38;;;4.90;;
62554;SDS011;48610;52.144;8.624;2024-02-14T17:39:55;7.38;;;4.60;;
62554;SDS011;48610;52.144;8.624;2024-02-14T17:42:56;7.03;;;5.07;;
62554;SDS011;48610;52.144;8.624;2024-02-14T17:45:56;6.93;;;4.88;;
62554;SDS011;48610;52.144;8.624;2024-02-14T17:48:57;6.78;;;4.80;;
62554;SDS011;48610;52.144;8.624;2024-02-14T17:51:58;7.70;;;5.05;;
62554;SDS011;48610;52.144;8.624;2024-02-14T17:54:59;6.32;;;4.47;;
62554;SDS011;48610;52.144;8.624;2024-02-14T17:58:01;6.57;;;4.25;;
62554;SDS011;48610;52.144;8.624;2024-02-14T18:01:05;6.93;;;4.25;;
62554;SDS011;48610;52.144;8.624;2024-02-14T18:04:05;8.35;;;4.80;;
62554;SDS011;48610;52.144;8.624;2024-02-14T18:07:07;7.53;;;4.60;;
62554;SDS011;48610;52.144;8.624;2024-02-14T18:10:07;6.25;;;4.28;;